Time;durP1;ratioP1;P1;durP2;ratioP2;P2;SDS_P1;SDS_P2;PMS_P1;PMS_P2;Temp;Humidity;BMP_temperature;BMP_pressure;BME280_temperature;BME280_humidity;BME280_pressure;Samples;Min_cycle;Max_cycle;Signal;HPM_P1;HPM_P2
2021/06/06 00:00:49;;;;;;;31.58;15.40;;;;;;;15.30;69.80;100011.88;5047923;28;20037;-69
2021/06/06 00:03:22;;;;;;;34.13;15.73;;;;;;;15.17;69.89;99999.00;5049369;28;20178;-70
2021/06/06 00:05:55;;;;;;;29.40;16.20;;;;;;;15.19;70.21;100011.38;5048465;28;20385;-70
2021/06/06 00:08:24;;;;;;;34.42;15.73;;;;;;;15.12;70.50;100015.22;5046730;28;20056;-69
2021/06/06 00:10:54;;;;;;;30.20;17.30;;;;;;;14.98;69.94;99985.41;5068717;28;20051;-70
2021/06/06 00:13:20;;;;;;;36.10;16.80;;;;;;;15.14;70.17;100013.34;5026576;28;20033;-70
2021/06/06 00:15:47;;;;;;;41.75;17.83;;;;;;;15.06;70.59;100006.50;5050590;28;20498;-68
2021/06/06 00:18:13;;;;;;;31.23;17.80;;;;;;;15.10;70.31;100022.38;5049212;28;20032;-73
2021/06/06 00:20:40;;;;;;;48.58;18.35;;;;;;;15.05;70.82;100010.13;5032048;28;20131;-73
2021/06/06 00:23:09;;;;;;;39.40;18.58;;;;;;;15.09;70.29;100017.97;5060871;28;20048;-74
2021/06/06 00:25:36;;;;;;;40.40;19.95;;;;;;;15.06;70.58;100018.06;5067883;28;20527;-67
2021/06/06 00:28:02;;;;;;;40.38;19.77;;;;;;;15.02;70.52;100008.41;5031719;28;20508;-73
2021/06/06 00:30:29;;;;;;;40.95;19.73;;;;;;;15.01;70.91;100011.13;5067055;28;20044;-69
2021/06/06 00:32:56;;;;;;;34.70;19.60;;;;;;;14.99;70.83;100024.53;5050713;28;20040;-69
2021/06/06 00:35:24;;;;;;;42.88;19.80;;;;;;;15.02;70.42;100010.22;5049642;28;20048;-69
2021/06/06 00:37:52;;;;;;;46.50;21.20;;;;;;;15.00;70.97;100009.41;5016202;28;20047;-72
2021/06/06 00:40:24;;;;;;;50.00;22.40;;;;;;;14.96;71.14;100010.44;5068832;28;20048;-70
2021/06/06 00:42:51;;;;;;;42.75;22.35;;;;;;;14.92;71.52;100017.69;5050528;28;20037;-71
2021/06/06 00:45:24;;;;;;;55.20;23.35;;;;;;;14.88;71.33;100005.38;5031924;28;20047;-71
2021/06/06 00:47:50;;;;;;;41.38;23.63;;;;;;;14.82;71.33;99997.53;5050217;28;20102;-69
2021/06/06 00:50:25;;;;;;;45.35;23.98;;;;;;;14.84;71.51;99994.81;5066184;28;20067;-71
2021/06/06 00:52:56;;;;;;;50.55;24.38;;;;;;;14.91;71.20;100007.91;5029174;28;20147;-70
2021/06/06 00:55:23;;;;;;;45.03;24.20;;;;;;;14.76;71.27;99989.75;5025687;28;20095;-70
2021/06/06 00:57:51;;;;;;;53.17;25.15;;;;;;;14.87;71.54;100002.75;5043025;28;20074;-72
2021/06/06 01:00:20;;;;;;;54.70;24.95;;;;;;;14.78;72.06;100001.25;5061063;28;20106;-70
2021/06/06 01:02:50;;;;;;;53.78;25.80;;;;;;;14.82;71.86;100004.66;5033753;28;20044;-70
2021/06/06 01:05:35;;;;;;;61.97;27.63;;;;;;;14.88;71.78;99997.34;5068221;28;20044;-70
2021/06/06 01:08:11;;;;;;;58.05;29.52;;;;;;;14.89;71.36;99991.09;5034505;28;20054;-70
2021/06/06 01:10:41;;;;;;;64.32;30.20;;;;;;;14.75;72.06;99992.47;5016089;28;20045;-71
2021/06/06 01:13:15;;;;;;;55.00;32.05;;;;;;;14.82;71.88;99999.31;5043390;28;20102;-70
2021/06/06 01:15:52;;;;;;;57.22;30.98;;;;;;;14.81;71.78;99995.81;5049168;28;20044;-70
2021/06/06 01:18:25;;;;;;;64.13;33.20;;;;;;;14.81;71.50;99986.91;5063050;28;20041;-72
2021/06/06 01:21:18;;;;;;;55.05;33.75;;;;;;;14.73;71.75;99986.28;4997908;28;20083;-70
2021/06/06 01:24:19;;;;;;;63.30;34.55;;;;;;;14.80;71.62;99977.16;5032259;28;20048;-70
2021/06/06 01:26:59;;;;;;;63.03;35.63;;;;;;;14.83;71.56;99987.75;5040638;28;20143;-72
2021/06/06 01:29:43;;;;;;;57.05;33.03;;;;;;;14.81;71.59;99986.91;5048421;28;20040;-68
2021/06/06 01:32:21;;;;;;;66.68;34.25;;;;;;;14.74;71.47;99967.56;5049435;28;20056;-72
2021/06/06 01:34:59;;;;;;;60.90;35.05;;;;;;;14.81;71.71;99989.59;5049535;28;20044;-68
2021/06/06 01:37:28;;;;;;;64.90;33.58;;;;;;;14.84;71.85;99993.03;5049960;28;20072;-68
2021/06/06 01:40:04;;;;;;;61.75;34.35;;;;;;;14.86;71.55;99998.31;5048241;28;20047;-69
2021/06/06 01:42:37;;;;;;;55.58;33.45;;;;;;;14.83;71.62;99993.09;5042217;28;20044;-70
2021/06/06 01:45:10;;;;;;;65.82;34.97;;;;;;;14.81;72.20;99997.59;5030738;28;20129;-71
2021/06/06 01:47:38;;;;;;;66.65;36.85;;;;;;;14.91;71.34;99999.03;5016260;28;20131;-69
2021/06/06 01:50:14;;;;;;;67.13;37.42;;;;;;;14.86;71.72;99993.84;5048075;28;20512;-71
2021/06/06 01:52:44;;;;;;;57.60;34.75;;;;;;;14.78;71.38;99966.53;5046959;28;20040;-69
2021/06/06 01:55:15;;;;;;;64.55;35.60;;;;;;;14.86;71.61;99991.19;5048672;28;20530;-69
2021/06/06 01:57:51;;;;;;;72.53;37.05;;;;;;;14.89;71.91;99998.22;5064217;28;20048;-71
2021/06/06 02:00:50;;;;;;;68.22;37.15;;;;;;;14.85;71.23;99975.19;5062020;28;20097;-69
2021/06/06 02:03:30;;;;;;;72.93;35.53;;;;;;;14.82;71.70;99975.31;5014522;28;20039;-70
2021/06/06 02:05:58;;;;;;;64.57;34.38;;;;;;;15.01;70.77;99985.31;5030119;28;20055;-69
2021/06/06 02:08:32;;;;;;;69.75;32.20;;;;;;;14.98;71.32;99996.09;5012759;28;20068;-69
2021/06/06 02:11:19;;;;;;;58.42;31.85;;;;;;;14.91;71.37;99986.53;5031652;28;20029;-70
2021/06/06 02:13:58;;;;;;;73.80;32.90;;;;;;;14.98;71.39;99997.88;5031163;28;20051;-71
2021/06/06 02:16:34;;;;;;;60.83;31.10;;;;;;;15.07;70.83;99994.94;5046637;28;20123;-68
2021/06/06 02:19:11;;;;;;;52.50;27.58;;;;;;;15.13;70.48;99992.03;5028101;28;20090;-71
2021/06/06 02:21:39;;;;;;;51.05;28.25;;;;;;;15.16;70.78;99987.47;5019220;28;20064;-69
2021/06/06 02:24:07;;;;;;;44.65;25.83;;;;;;;14.99;70.45;99951.59;5016728;28;20063;-69
2021/06/06 02:26:48;;;;;;;53.83;27.40;;;;;;;15.13;70.94;99981.34;5045389;28;20055;-68
2021/06/06 02:29:21;;;;;;;45.85;24.80;;;;;;;15.19;70.51;99982.00;5031146;28;20440;-70
2021/06/06 02:32:09;;;;;;;52.15;23.83;;;;;;;15.20;70.47;99986.44;5049090;28;20052;-69
2021/06/06 02:34:48;;;;;;;50.17;22.63;;;;;;;15.25;70.47;99987.13;5028013;28;20052;-72
2021/06/06 02:37:24;;;;;;;36.38;22.25;;;;;;;15.18;70.64;99958.88;5046157;28;20049;-69
2021/06/06 02:39:59;;;;;;;45.88;22.27;;;;;;;15.34;70.48;99977.91;5028821;28;20938;-69
2021/06/06 02:42:32;;;;;;;44.00;20.00;;;;;;;15.40;69.93;99975.94;5039443;28;20118;-69
2021/06/06 02:45:08;;;;;;;36.97;19.70;;;;;;;15.53;69.57;99982.56;5046822;28;20040;-70
2021/06/06 02:47:38;;;;;;;40.65;19.35;;;;;;;15.36;69.91;99952.94;5045213;28;20047;-69
2021/06/06 02:50:20;;;;;;;35.78;18.38;;;;;;;15.57;69.87;99980.66;5046139;28;20072;-70
2021/06/06 02:52:53;;;;;;;34.17;18.13;;;;;;;15.65;69.23;99971.44;5066762;28;20076;-69
2021/06/06 02:55:36;;;;;;;39.47;18.02;;;;;;;15.67;69.63;99982.06;5020515;28;20413;-70
2021/06/06 02:58:11;;;;;;;40.47;17.52;;;;;;;15.66;69.48;99969.66;5027537;28;20044;-69
2021/06/06 03:00:45;;;;;;;32.25;15.82;;;;;;;15.79;69.39;99974.44;5035313;28;20056;-69
2021/06/06 03:03:33;;;;;;;34.15;15.85;;;;;;;15.97;68.66;99979.09;5026109;28;20525;-69
2021/06/06 03:06:21;;;;;;;;;;;;;;;15.99;68.78;99985.25;4997734;28;20057;-70
2021/06/06 03:08:48;;;;;;;32.00;14.15;;;;;;;15.99;68.25;99969.22;5028212;28;19924;-69
2021/06/06 03:11:17;;;;;;;31.30;14.57;;;;;;;16.00;68.52;99967.41;5056977;28;20046;-68
2021/06/06 03:14:09;;;;;;;28.77;14.25;;;;;;;16.21;68.09;99985.28;5033438;28;20057;-71
2021/06/06 03:16:52;;;;;;;28.30;13.88;;;;;;;16.32;67.85;99985.75;5026749;28;20047;-69
2021/06/06 03:19:20;;;;;;;24.55;12.77;;;;;;;16.32;67.82;99980.41;5024432;28;20033;-70
2021/06/06 03:21:51;;;;;;;29.27;12.98;;;;;;;16.40;67.48;99981.84;5044305;28;20052;-69
2021/06/06 03:24:34;;;;;;;33.30;12.70;;;;;;;16.49;67.33;99976.16;5047712;28;20044;-69
2021/06/06 03:27:03;;;;;;;22.77;11.52;;;;;;;16.50;67.09;99983.25;5064959;28;20126;-69
2021/06/06 03:29:33;;;;;;;27.30;11.73;;;;;;;16.57;66.56;99989.22;5064529;28;20106;-69
2021/06/06 03:32:09;;;;;;;26.02;11.77;;;;;;;16.74;66.89;99992.09;5011998;28;20128;-70
2021/06/06 03:34:38;;;;;;;23.38;10.55;;;;;;;16.81;66.16;99981.06;5047454;28;20396;-70
2021/06/06 03:37:06;;;;;;;24.83;10.73;;;;;;;17.05;65.40;99987.19;5040968;28;20041;-69
2021/06/06 03:39:56;;;;;;;33.15;11.68;;;;;;;17.17;65.18;99984.00;5037971;28;20073;-68
2021/06/06 03:42:34;;;;;;;23.35;11.63;;;;;;;17.33;64.31;99985.06;5055795;28;20041;-68
2021/06/06 03:45:01;;;;;;;18.58;9.43;;;;;;;17.37;64.09;99965.22;5028776;28;20041;-68
2021/06/06 03:47:27;;;;;;;25.05;9.90;;;;;;;17.57;63.92;99984.00;5064486;28;20044;-71
2021/06/06 03:49:54;;;;;;;22.20;9.50;;;;;;;17.67;63.57;99982.63;5048166;28;20063;-70
2021/06/06 03:52:22;;;;;;;20.55;9.02;;;;;;;17.78;63.38;99975.00;5062785;28;20036;-70
2021/06/06 03:54:49;;;;;;;22.27;10.20;;;;;;;17.83;63.02;99978.31;5049926;28;20049;-69
2021/06/06 03:57:15;;;;;;;17.38;8.85;;;;;;;17.68;63.42;99963.81;5027863;28;20133;-69
2021/06/06 03:59:45;;;;;;;22.60;9.77;;;;;;;17.89;63.18;99975.38;5022403;28;20122;-71
2021/06/06 04:02:12;;;;;;;26.35;9.65;;;;;;;17.95;62.76;99956.28;5025213;28;20047;-69
2021/06/06 04:04:38;;;;;;;18.98;8.30;;;;;;;18.20;62.52;99977.47;5035926;28;20051;-70
2021/06/06 04:07:05;;;;;;;22.38;8.60;;;;;;;18.19;62.40;99971.22;5012391;28;20162;-69
2021/06/06 04:09:33;;;;;;;16.20;7.72;;;;;;;18.35;61.57;99950.78;5043441;28;20101;-66
2021/06/06 04:12:00;;;;;;;19.42;7.57;;;;;;;18.38;61.65;99957.81;5027592;28;20072;-69
2021/06/06 04:14:28;;;;;;;20.45;7.35;;;;;;;18.48;61.41;99969.88;5039559;28;20152;-70
2021/06/06 04:17:00;;;;;;;12.40;7.13;;;;;;;18.55;61.20;99971.31;5043564;28;20048;-70
2021/06/06 04:19:29;;;;;;;21.48;7.10;;;;;;;18.61;60.89;99963.81;5048527;28;20052;-68
2021/06/06 04:21:56;;;;;;;18.10;7.00;;;;;;;18.66;60.87;99977.91;5031047;28;20066;-68
2021/06/06 04:24:23;;;;;;;24.70;7.13;;;;;;;18.67;60.42;99968.88;5063149;28;20048;-68
2021/06/06 04:26:52;;;;;;;15.88;7.03;;;;;;;18.66;60.56;99974.34;5028046;28;20068;-68
2021/06/06 04:29:20;;;;;;;14.73;6.82;;;;;;;18.84;59.82;99976.13;5037341;28;20045;-68
2021/06/06 04:31:50;;;;;;;17.80;6.85;;;;;;;18.84;60.07;99968.06;5075383;28;20047;-69
2021/06/06 04:34:19;;;;;;;12.45;7.32;;;;;;;18.89;59.87;99956.13;5065669;28;20223;-67
2021/06/06 04:36:51;;;;;;;13.95;7.18;;;;;;;19.05;59.32;99957.09;5045574;28;20573;-70
2021/06/06 04:39:20;;;;;;;15.70;7.28;;;;;;;19.05;59.19;99964.25;5062139;28;20080;-71
2021/06/06 04:41:46;;;;;;;18.40;7.90;;;;;;;19.25;58.90;99956.06;5044710;28;20193;-69
2021/06/06 04:44:13;;;;;;;18.00;7.88;;;;;;;19.40;58.69;99963.34;5044373;28;20055;-69
2021/06/06 04:46:39;;;;;;;20.08;7.50;;;;;;;19.41;58.56;99957.00;5032595;28;20596;-70
2021/06/06 04:49:09;;;;;;;12.95;6.60;;;;;;;19.47;57.80;99946.81;5009779;28;20044;-69
2021/06/06 04:51:36;;;;;;;14.25;5.88;;;;;;;19.32;58.45;99942.25;5013977;28;20037;-70
2021/06/06 04:54:12;;;;;;;14.55;7.22;;;;;;;19.77;57.58;99965.81;5030771;28;20091;-72
2021/06/06 04:56:39;;;;;;;14.75;6.57;;;;;;;19.81;57.11;99959.31;5029331;28;20044;-69
2021/06/06 04:59:05;;;;;;;17.88;6.75;;;;;;;19.93;56.89;99955.97;5055727;28;20068;-70
2021/06/06 05:01:32;;;;;;;12.73;6.85;;;;;;;20.00;56.65;99965.44;5065686;28;20584;-70
2021/06/06 05:04:03;;;;;;;17.90;7.07;;;;;;;20.04;56.60;99961.59;5047359;28;20560;-69
2021/06/06 05:06:30;;;;;;;14.73;6.00;;;;;;;20.06;56.21;99949.78;5068357;28;20074;-68
2021/06/06 05:09:03;;;;;;;13.45;6.38;;;;;;;20.19;56.37;99968.88;5049719;28;20048;-70
2021/06/06 05:11:32;;;;;;;12.60;5.60;;;;;;;20.23;56.02;99975.81;5048203;28;20541;-68
2021/06/06 05:13:59;;;;;;;13.20;5.90;;;;;;;20.18;56.09;99968.00;5057456;28;20442;-68
2021/06/06 05:16:25;;;;;;;12.40;5.82;;;;;;;20.18;56.12;99972.53;5047189;28;20048;-69
2021/06/06 05:18:54;;;;;;;11.70;6.20;;;;;;;20.17;56.13;99962.72;5012366;28;20048;-70
2021/06/06 05:21:23;;;;;;;13.50;6.05;;;;;;;20.26;55.69;99964.91;5041254;28;20897;-68
2021/06/06 05:23:52;;;;;;;18.10;5.88;;;;;;;20.21;56.38;99964.28;5037856;28;20044;-68
2021/06/06 05:26:20;;;;;;;11.32;6.43;;;;;;;20.31;55.65;99957.41;5032591;28;20086;-72
2021/06/06 05:28:47;;;;;;;13.02;5.40;;;;;;;20.35;55.51;99949.09;5048828;28;20051;-69
2021/06/06 05:31:15;;;;;;;16.05;5.95;;;;;;;20.63;54.90;99959.13;5067057;28;20052;-68
2021/06/06 05:33:42;;;;;;;12.90;5.97;;;;;;;20.86;54.26;99964.94;5033568;28;20595;-70
2021/06/06 05:36:08;;;;;;;16.83;5.70;;;;;;;20.97;53.96;99962.50;5048439;28;20042;-70
2021/06/06 05:38:35;;;;;;;16.95;5.65;;;;;;;21.12;53.64;99958.03;5050337;28;20098;-69
2021/06/06 05:41:02;;;;;;;11.05;5.15;;;;;;;21.15;53.78;99965.94;5067932;28;20107;-69
2021/06/06 05:43:28;;;;;;;16.88;5.40;;;;;;;21.27;53.25;99962.50;5064716;28;20883;-70
2021/06/06 05:45:54;;;;;;;12.77;5.97;;;;;;;21.05;53.58;99940.50;5067217;28;20113;-69
2021/06/06 05:48:21;;;;;;;11.65;4.70;;;;;;;21.01;54.01;99955.97;5075145;28;20056;-68
2021/06/06 05:50:51;;;;;;;6.80;4.82;;;;;;;21.05;53.60;99959.38;5056683;28;20052;-68
2021/06/06 05:53:39;;;;;;;13.40;4.35;;;;;;;21.41;53.01;99959.84;5056939;28;20037;-68
2021/06/06 05:56:07;;;;;;;7.72;4.47;;;;;;;21.31;52.29;99937.94;5038325;28;20399;-68
2021/06/06 05:58:33;;;;;;;11.57;4.68;;;;;;;21.40;52.60;99964.38;5046437;28;20055;-67
2021/06/06 06:01:01;;;;;;;11.20;4.40;;;;;;;21.55;52.64;99966.13;5048745;28;20040;-68
2021/06/06 06:03:27;;;;;;;7.93;4.28;;;;;;;21.58;52.51;99944.34;5049186;28;20051;-68
2021/06/06 06:05:54;;;;;;;10.38;4.38;;;;;;;21.87;51.83;99958.75;5044734;28;20139;-70
2021/06/06 06:08:27;;;;;;;16.85;5.00;;;;;;;21.98;51.55;99958.94;5047167;28;20094;-68
2021/06/06 06:11:00;;;;;;;10.02;3.90;;;;;;;22.13;51.07;99949.88;5031522;28;20045;-69
2021/06/06 06:13:29;;;;;;;9.05;4.00;;;;;;;22.15;51.05;99956.03;5045880;28;20044;-68
2021/06/06 06:15:56;;;;;;;9.32;3.90;;;;;;;22.34;49.83;99940.38;5048409;28;20361;-68
2021/06/06 06:18:25;;;;;;;6.80;3.92;;;;;;;22.55;49.82;99960.66;5046123;28;20083;-69
2021/06/06 06:20:52;;;;;;;8.35;4.47;;;;;;;22.66;49.30;99932.91;5017083;28;20068;-70
2021/06/06 06:23:19;;;;;;;6.20;3.28;;;;;;;23.05;48.63;99959.94;5045485;28;20037;-69
2021/06/06 06:25:47;;;;;;;7.78;3.28;;;;;;;23.26;48.20;99955.84;5047641;28;20045;-69
2021/06/06 06:28:14;;;;;;;4.28;3.05;;;;;;;23.37;47.46;99959.53;5035127;28;20456;-69
2021/06/06 06:30:50;;;;;;;15.25;3.60;;;;;;;22.91;47.79;99903.22;5030695;28;20464;-69
2021/06/06 06:33:25;;;;;;;7.00;2.80;;;;;;;23.35;47.04;99953.38;5028492;28;20051;-69
2021/06/06 06:35:51;;;;;;;15.55;2.90;;;;;;;23.67;46.81;99954.69;5027759;28;20091;-70
2021/06/06 06:38:17;;;;;;;10.55;3.30;;;;;;;23.77;46.01;99947.63;5043133;28;20036;-67
2021/06/06 06:40:44;;;;;;;5.47;3.05;;;;;;;23.88;46.08;99953.16;5012245;28;20045;-68
2021/06/06 06:43:11;;;;;;;6.32;2.42;;;;;;;23.84;45.42;99939.94;5064606;28;20036;-69
2021/06/06 06:45:41;;;;;;;7.38;3.22;;;;;;;23.97;46.04;99949.81;5028930;28;20582;-68
2021/06/06 06:48:12;;;;;;;6.70;2.63;;;;;;;23.71;46.02;99934.56;5055546;28;20569;-67
2021/06/06 06:50:39;;;;;;;4.75;2.35;;;;;;;24.21;44.51;99947.22;5046089;28;20064;-69
2021/06/06 06:53:05;;;;;;;4.43;2.60;;;;;;;24.21;44.71;99942.63;5044808;28;20433;-69
2021/06/06 06:55:32;;;;;;;7.97;3.05;;;;;;;24.69;44.01;99947.19;5050477;28;20055;-70
2021/06/06 06:58:00;;;;;;;5.70;2.90;;;;;;;24.83;43.07;99957.88;5047416;28;20327;-67
2021/06/06 07:00:48;;;;;;;10.73;3.05;;;;;;;24.72;43.51;99955.09;5063774;28;20072;-73
2021/06/06 07:03:17;;;;;;;11.63;2.88;;;;;;;24.73;43.82;99951.41;5047036;28;20045;-69
2021/06/06 07:05:44;;;;;;;4.78;3.00;;;;;;;24.79;43.46;99956.38;5047241;28;20044;-72
2021/06/06 07:08:16;;;;;;;5.82;2.90;;;;;;;24.97;43.25;99957.69;5045553;28;20500;-69
2021/06/06 07:10:43;;;;;;;;;;;;;;;25.04;43.34;99956.25;5030740;28;20044;-68
2021/06/06 07:13:10;;;;;;;6.75;2.75;;;;;;;25.04;43.48;99950.81;5046856;28;19967;-73
2021/06/06 07:15:37;;;;;;;9.50;3.13;;;;;;;25.09;42.81;99953.19;5027876;28;20049;-67
2021/06/06 07:18:11;;;;;;;8.15;3.05;;;;;;;25.23;42.29;99956.56;5049260;28;20048;-70
2021/06/06 07:20:39;;;;;;;11.45;2.97;;;;;;;25.65;41.37;99949.69;5060681;28;20040;-69
2021/06/06 07:23:08;;;;;;;4.97;2.42;;;;;;;25.46;41.43;99957.53;5064322;28;20041;-67
2021/06/06 07:25:34;;;;;;;4.82;2.70;;;;;;;25.45;41.52;99947.66;5040659;28;20044;-67
2021/06/06 07:28:02;;;;;;;10.80;3.20;;;;;;;25.27;41.52;99941.78;5075460;28;20423;-68
2021/06/06 07:30:34;;;;;;;10.88;2.88;;;;;;;25.29;41.76;99945.28;5067644;28;20807;-69
2021/06/06 07:33:02;;;;;;;6.10;2.80;;;;;;;25.55;41.74;99937.81;5041343;28;20392;-68
2021/06/06 07:35:31;;;;;;;6.00;3.30;;;;;;;25.68;41.57;99950.31;5055256;28;20522;-69
2021/06/06 07:37:58;;;;;;;4.35;2.50;;;;;;;25.60;41.38;99943.75;5037512;28;20097;-68
2021/06/06 07:40:30;;;;;;;9.63;3.05;;;;;;;26.05;40.61;99945.56;5057728;28;20134;-70
2021/06/06 07:42:56;;;;;;;13.80;2.65;;;;;;;26.44;40.08;99933.28;5071163;28;20087;-69
2021/06/06 07:45:24;;;;;;;4.35;2.80;;;;;;;26.70;39.22;99911.13;5067028;28;20511;-73
2021/06/06 07:47:50;;;;;;;4.80;3.15;;;;;;;27.25;38.67;99930.00;5055958;28;20811;-72
2021/06/06 07:50:21;;;;;;;17.27;3.30;;;;;;;27.50;38.51;99929.63;5023485;28;20040;-68
2021/06/06 07:52:47;;;;;;;10.57;3.05;;;;;;;27.72;37.77;99925.88;5071030;28;20482;-72
2021/06/06 07:55:15;;;;;;;10.65;2.70;;;;;;;27.62;37.14;99930.41;5020716;28;20035;-70
2021/06/06 07:57:43;;;;;;;4.72;2.65;;;;;;;27.79;36.95;99930.66;5056111;28;20460;-67
2021/06/06 08:00:14;;;;;;;6.22;2.90;;;;;;;27.86;36.14;99925.56;5070318;28;20049;-71
2021/06/06 08:02:41;;;;;;;7.22;2.85;;;;;;;28.30;35.59;99917.88;5053928;28;20059;-68
2021/06/06 08:05:09;;;;;;;8.13;2.60;;;;;;;27.86;35.86;99909.19;5069916;28;20115;-69
2021/06/06 08:07:35;;;;;;;7.60;2.45;;;;;;;27.99;35.85;99923.47;5046892;28;20056;-67
2021/06/06 08:10:03;;;;;;;6.07;3.20;;;;;;;28.81;34.53;99910.41;5042890;28;20098;-70
2021/06/06 08:12:30;;;;;;;6.32;2.55;;;;;;;29.84;32.61;99927.91;5072501;28;20774;-69
2021/06/06 08:14:56;;;;;;;10.63;2.40;;;;;;;29.37;32.73;99924.22;5047168;28;20079;-69
2021/06/06 08:17:24;;;;;;;5.40;2.75;;;;;;;28.34;34.46;99922.03;5035609;28;20052;-72
2021/06/06 08:19:51;;;;;;;14.23;2.42;;;;;;;27.56;36.41;99920.06;5036343;28;20051;-70
2021/06/06 08:22:18;;;;;;;8.32;3.10;;;;;;;30.08;32.24;99936.47;5055813;28;20465;-70
2021/06/06 08:24:43;;;;;;;13.65;2.67;;;;;;;28.53;34.23;99924.88;5057479;28;20040;-71
2021/06/06 08:27:10;;;;;;;11.55;2.40;;;;;;;27.91;35.53;99917.81;5021001;28;20123;-70
2021/06/06 08:29:36;;;;;;;15.35;2.65;;;;;;;29.15;33.41;99903.53;5058490;28;20044;-69
2021/06/06 08:32:03;;;;;;;6.70;2.58;;;;;;;29.98;31.76;99925.56;5053385;28;20051;-69
2021/06/06 08:34:29;;;;;;;9.82;2.78;;;;;;;29.19;33.12;99898.66;5054538;28;20097;-71
2021/06/06 08:36:59;;;;;;;8.90;2.55;;;;;;;27.97;35.52;99915.41;5058090;28;20044;-69
2021/06/06 08:39:33;;;;;;;7.85;2.63;;;;;;;27.12;36.34;99918.41;5047357;28;20037;-67
2021/06/06 08:42:21;;;;;;;8.45;2.35;;;;;;;26.56;37.48;99902.34;5054207;28;20071;-70
2021/06/06 08:45:08;;;;;;;12.52;3.25;;;;;;;31.58;29.26;99918.38;5055846;28;20044;-71
2021/06/06 08:47:36;;;;;;;11.02;3.80;;;;;;;33.30;27.14;99923.28;5010700;28;20073;-70
2021/06/06 08:50:10;;;;;;;6.60;2.30;;;;;;;31.87;28.35;99907.97;5045175;28;20041;-72
2021/06/06 08:53:05;;;;;;;5.68;3.00;;;;;;;30.15;30.94;99892.00;5015211;28;20064;-71
2021/06/06 08:55:35;;;;;;;9.52;2.92;;;;;;;32.51;27.67;99908.34;5047240;28;20041;-71
2021/06/06 08:58:25;;;;;;;8.75;2.70;;;;;;;33.03;26.59;99909.88;5044814;28;20091;-75
2021/06/06 09:01:01;;;;;;;4.95;2.20;;;;;;;31.54;28.36;99901.38;5048148;28;20111;-68
2021/06/06 09:03:29;;;;;;;5.55;2.50;;;;;;;34.80;24.14;99913.22;5050504;28;20040;-74
2021/06/06 09:06:04;;;;;;;7.47;2.22;;;;;;;36.53;21.67;99910.16;5019596;28;20042;-69
2021/06/06 09:08:33;;;;;;;7.25;2.40;;;;;;;37.55;20.40;99920.94;5055555;28;20388;-69
2021/06/06 09:11:05;;;;;;;4.20;1.80;;;;;;;35.86;22.27;99893.81;5053896;28;20051;-71
2021/06/06 09:13:31;;;;;;;;;;;;;;;35.05;23.07;99896.38;5054521;28;20069;-71
2021/06/06 09:16:12;;;;;;;4.55;1.88;;;;;;;32.57;26.60;99880.22;5037721;28;19920;-70
2021/06/06 09:18:44;;;;;;;;;;;;;;;31.01;28.71;99873.13;5059326;28;20059;-72
2021/06/06 09:21:20;;;;;;;11.82;2.67;;;;;;;31.82;27.94;99882.91;5039789;28;19917;-73
2021/06/06 09:23:51;;;;;;;6.53;2.53;;;;;;;35.59;22.75;99891.66;5056911;28;20043;-75
2021/06/06 09:26:20;;;;;;;10.55;2.33;;;;;;;36.48;21.29;99851.84;5074139;28;20049;-73
2021/06/06 09:29:00;;;;;;;7.45;2.05;;;;;;;37.91;19.47;99891.22;5042249;28;20130;-70
2021/06/06 09:31:26;;;;;;;4.88;2.10;;;;;;;39.02;18.27;99892.72;5071719;28;20045;-70
2021/06/06 09:33:52;;;;;;;4.78;1.52;;;;;;;37.62;19.69;99883.13;5060069;28;20135;-71
2021/06/06 09:36:24;;;;;;;10.57;1.60;;;;;;;36.78;20.39;99871.13;5015211;28;20226;-71
2021/06/06 09:39:11;;;;;;;3.20;1.77;;;;;;;34.78;22.99;99857.41;5046968;28;20048;-70
2021/06/06 09:41:44;;;;;;;5.00;1.83;;;;;;;33.80;24.12;99860.72;5075053;28;20044;-71
2021/06/06 09:44:21;;;;;;;11.30;2.45;;;;;;;33.09;25.14;99835.84;5070975;28;20078;-74
2021/06/06 09:46:55;;;;;;;9.02;1.80;;;;;;;32.35;26.12;99848.72;5077545;28;20049;-72
2021/06/06 09:49:36;;;;;;;9.40;1.90;;;;;;;31.00;27.96;99829.47;5054678;28;20448;-74
2021/06/06 09:52:18;;;;;;;10.63;2.28;;;;;;;30.47;28.63;99829.44;5076275;28;20071;-72
2021/06/06 09:54:53;;;;;;;4.07;1.80;;;;;;;30.16;29.84;99835.38;5039321;28;20047;-79
2021/06/06 09:57:35;;;;;;;3.50;1.88;;;;;;;29.93;30.60;99836.78;5056811;28;20040;-72
2021/06/06 10:00:19;;;;;;;6.18;2.10;;;;;;;30.16;30.53;99838.13;5052699;28;20113;-76
2021/06/06 10:02:52;;;;;;;9.25;2.70;;;;;;;29.90;30.91;99829.72;5043233;28;20142;-72
2021/06/06 10:05:33;;;;;;;5.65;2.45;;;;;;;29.65;31.03;99830.41;5043807;28;20051;-73
2021/06/06 10:08:16;;;;;;;7.13;2.35;;;;;;;29.32;31.42;99826.28;5042107;28;20062;-74
2021/06/06 10:10:47;;;;;;;5.32;2.53;;;;;;;29.14;32.26;99824.47;5056194;28;20048;-78
2021/06/06 10:13:17;;;;;;;4.93;2.38;;;;;;;28.87;32.28;99821.59;5053501;28;20051;-72
2021/06/06 10:15:58;;;;;;;5.68;2.55;;;;;;;28.53;33.35;99818.44;5066400;28;20086;-71
2021/06/06 10:18:36;;;;;;;8.93;2.50;;;;;;;28.24;33.23;99809.28;5071582;28;20044;-71
2021/06/06 10:21:19;;;;;;;6.90;2.08;;;;;;;27.87;33.37;99816.38;5068193;28;20056;-70
2021/06/06 10:23:50;;;;;;;6.38;2.03;;;;;;;27.36;34.51;99818.25;5084603;28;20094;-72
2021/06/06 10:26:54;;;;;;;6.85;2.05;;;;;;;27.13;35.24;99813.06;5035446;28;20386;-81
2021/06/06 10:29:33;;;;;;;5.93;2.25;;;;;;;26.82;35.30;99806.66;4973033;28;20093;-74
2021/06/06 10:32:13;;;;;;;7.32;2.20;;;;;;;26.91;35.32;99807.75;5004803;28;20053;-79
2021/06/06 10:34:47;;;;;;;8.50;2.22;;;;;;;26.61;36.09;99802.22;5004565;28;20262;-77
2021/06/06 10:37:14;;;;;;;6.25;2.40;;;;;;;26.42;36.57;99794.69;5004036;28;20633;-72
2021/06/06 10:39:43;;;;;;;8.23;2.28;;;;;;;26.37;36.83;99791.50;5001703;28;20050;-78
2021/06/06 10:42:12;;;;;;;6.32;2.85;;;;;;;26.40;37.00;99798.56;5005053;28;20249;-70
2021/06/06 10:45:06;;;;;;;8.35;2.50;;;;;;;26.55;36.69;99797.25;5004406;28;20046;-81
2021/06/06 10:47:54;;;;;;;8.98;2.45;;;;;;;26.18;37.41;99793.19;5010511;28;20057;-80
2021/06/06 10:50:32;;;;;;;20.77;2.97;;;;;;;25.86;41.73;99791.25;5003828;28;20037;-80
2021/06/06 10:53:19;;;;;;;15.00;2.97;;;;;;;25.75;45.13;99804.00;5019687;28;20046;-79
2021/06/06 10:56:03;;;;;;;11.52;3.15;;;;;;;25.60;46.08;99791.66;4965128;28;20153;-84
2021/06/06 10:58:56;;;;;;;11.02;3.35;;;;;;;25.49;47.47;99783.50;5022254;28;20084;-78
2021/06/06 11:01:49;;;;;;;6.55;2.78;;;;;;;27.32;43.36;99794.13;4981075;28;20069;-78
2021/06/06 11:04:26;;;;;;;10.00;3.30;;;;;;;29.22;39.16;99805.47;4985907;28;20057;-81
2021/06/06 11:07:49;;;;;;;5.65;2.45;;;;;;;30.28;36.97;99809.53;5055482;28;20052;-79
2021/06/06 11:10:20;;;;;;;5.25;2.65;;;;;;;29.19;37.24;99803.06;5053181;28;20416;-82
2021/06/06 11:12:50;;;;;;;2.95;2.15;;;;;;;30.63;34.33;99817.78;5011224;28;20040;-80
2021/06/06 11:15:32;;;;;;;4.57;2.20;;;;;;;30.09;35.34;99809.63;5011216;28;20777;-80
2021/06/06 11:18:16;;;;;;;4.20;2.05;;;;;;;29.62;35.45;99800.63;5065460;28;20461;-79
2021/06/06 11:20:59;;;;;;;4.80;1.92;;;;;;;29.18;35.82;99812.22;5066027;28;20521;-79
2021/06/06 11:23:45;;;;;;;4.05;2.35;;;;;;;29.29;36.80;99807.47;5031708;28;20036;-80
2021/06/06 11:26:44;;;;;;;4.47;2.00;;;;;;;30.35;34.08;99818.84;5028260;28;20052;-80
2021/06/06 11:29:21;;;;;;;4.70;2.10;;;;;;;31.34;32.53;99814.88;4984851;28;20034;-79
2021/06/06 11:32:11;;;;;;;6.15;2.25;;;;;;;31.52;32.47;99812.94;4971336;28;20049;-80
2021/06/06 11:35:02;;;;;;;3.60;2.35;;;;;;;32.58;31.32;99819.63;5004609;28;20119;-79
2021/06/06 11:37:28;;;;;;;7.90;2.95;;;;;;;31.83;32.08;99813.31;4926355;29;20048;-79
2021/06/06 11:39:57;;;;;;;8.27;3.13;;;;;;;30.99;32.55;99803.09;4946444;29;20191;-81
2021/06/06 11:42:35;;;;;;;8.82;2.50;;;;;;;30.57;33.04;99799.25;4916276;28;20051;-78
2021/06/06 11:45:18;;;;;;;5.88;2.38;;;;;;;29.89;33.16;99803.38;4934906;29;20071;-77
2021/06/06 11:48:30;;;;;;;8.60;2.30;;;;;;;29.01;35.02;99800.22;4925934;29;20055;-79
2021/06/06 11:50:58;;;;;;;6.65;1.95;;;;;;;28.73;35.32;99813.84;4889199;29;20064;-80
2021/06/06 11:53:40;;;;;;;7.85;2.05;;;;;;;27.63;36.91;99799.47;4906052;29;20051;-80